createdAt,value
2018-12-20T00:00:40.678Z,4.67
2018-12-20T00:03:09.974Z,3.17
2018-12-20T00:05:38.610Z,4.07
2018-12-20T00:08:07.044Z,5.53
2018-12-20T00:10:36.177Z,4.87
2018-12-20T00:13:04.528Z,3.37
2018-12-20T00:15:32.906Z,4.57
2018-12-20T00:18:01.435Z,3.77
2018-12-20T00:20:29.855Z,4.47
2018-12-20T00:22:59.842Z,3.57
2018-12-20T00:25:28.266Z,4.13
2018-12-20T00:27:58.048Z,3.27
2018-12-20T00:30:26.542Z,2.80
2018-12-20T00:32:55.778Z,3.70
2018-12-20T00:35:24.387Z,3.80
2018-12-20T00:37:53.739Z,4.23
2018-12-20T00:40:23.401Z,3.53
2018-12-20T00:42:51.902Z,4.10
2018-12-20T00:45:21.342Z,3.83
2018-12-20T00:47:49.696Z,6.43
2018-12-20T00:50:18.112Z,3.00
2018-12-20T00:52:46.550Z,3.27
2018-12-20T00:55:14.901Z,2.60
2018-12-20T00:57:43.299Z,3.83
2018-12-20T01:00:12.592Z,4.63
2018-12-20T01:02:41.016Z,2.90
2018-12-20T01:05:09.488Z,3.93
2018-12-20T01:07:38.493Z,3.87
2018-12-20T01:10:07.166Z,2.60
2018-12-20T01:12:35.668Z,3.43
2018-12-20T01:15:04.644Z,2.37
2018-12-20T01:17:39.452Z,3.43
2018-12-20T01:20:10.194Z,3.13
2018-12-20T01:22:39.596Z,2.50
2018-12-20T01:25:09.138Z,2.60
2018-12-20T01:27:38.732Z,2.93
2018-12-20T01:30:08.067Z,3.03
2018-12-20T01:32:37.650Z,2.70
2018-12-20T01:35:06.084Z,4.90
2018-12-20T01:37:36.355Z,4.20
2018-12-20T01:40:05.536Z,3.73
2018-12-20T01:42:34.845Z,7.07
2018-12-20T01:45:03.835Z,2.10
2018-12-20T01:47:32.304Z,4.30
2018-12-20T01:50:00.636Z,3.60
2018-12-20T01:52:29.242Z,6.07
2018-12-20T01:54:57.584Z,4.80
2018-12-20T01:57:26.760Z,3.03
2018-12-20T01:59:55.265Z,4.33
2018-12-20T02:02:23.768Z,4.13
2018-12-20T02:04:53.219Z,3.17
2018-12-20T02:07:21.642Z,5.03
2018-12-20T02:09:50.005Z,1.93
2018-12-20T02:12:18.423Z,5.37
2018-12-20T02:14:47.117Z,5.10
2018-12-20T02:17:15.688Z,6.23
2018-12-20T02:19:44.094Z,2.77
2018-12-20T02:22:13.423Z,4.60
2018-12-20T02:24:41.842Z,2.77
2018-12-20T02:27:11.127Z,3.53
2018-12-20T02:29:39.832Z,7.97
2018-12-20T02:32:09.087Z,3.97
2018-12-20T02:34:37.591Z,2.43
2018-12-20T02:37:06.050Z,4.33
2018-12-20T02:39:34.609Z,3.57
2018-12-20T02:42:03.533Z,1.83
2018-12-20T02:44:33.328Z,2.00
2018-12-20T02:47:01.794Z,2.87
2018-12-20T02:49:30.309Z,2.70
2018-12-20T02:51:58.736Z,3.20
2018-12-20T02:54:28.340Z,1.70
2018-12-20T02:56:56.790Z,5.80
2018-12-20T02:59:25.139Z,3.67
2018-12-20T03:01:54.792Z,1.87
2018-12-20T03:04:23.366Z,2.93
2018-12-20T03:06:51.759Z,2.33
2018-12-20T03:09:20.214Z,5.17
2018-12-20T03:11:48.578Z,3.23
2018-12-20T03:14:17.135Z,2.70
2018-12-20T03:16:45.610Z,3.93
2018-12-20T03:19:14.996Z,2.00
2018-12-20T03:21:43.866Z,2.70
2018-12-20T03:24:12.984Z,3.23
2018-12-20T03:26:42.804Z,2.77
2018-12-20T03:29:11.523Z,3.13
2018-12-20T03:31:40.526Z,2.63
2018-12-20T03:34:10.121Z,3.20
2018-12-20T03:36:38.741Z,1.93
2018-12-20T03:39:08.249Z,4.20
2018-12-20T03:41:37.467Z,5.00
2018-12-20T03:44:07.240Z,3.53
2018-12-20T03:46:35.707Z,2.50
2018-12-20T03:49:04.121Z,2.10
2018-12-20T03:51:33.988Z,1.50
2018-12-20T03:54:03.152Z,1.63
2018-12-20T03:56:31.787Z,2.00
2018-12-20T03:59:00.453Z,3.17
2018-12-20T04:01:30.146Z,2.70
2018-12-20T04:03:58.889Z,2.70
2018-12-20T04:06:27.541Z,2.07
2018-12-20T04:08:56.189Z,1.80
2018-12-20T04:11:24.868Z,4.20
2018-12-20T04:13:53.542Z,3.67
2018-12-20T04:16:22.300Z,3.03
2018-12-20T04:18:51.407Z,4.00
2018-12-20T04:21:20.334Z,1.80
2018-12-20T04:23:50.789Z,4.63
2018-12-20T04:26:19.454Z,2.47
2018-12-20T04:28:48.054Z,4.60
2018-12-20T04:31:16.545Z,2.77
2018-12-20T04:33:46.417Z,3.67
2018-12-20T04:36:15.237Z,4.43
2018-12-20T04:38:43.606Z,2.40
2018-12-20T04:41:13.208Z,2.00
2018-12-20T04:43:42.653Z,2.23
2018-12-20T04:46:11.150Z,2.30
2018-12-20T04:48:39.602Z,2.33
2018-12-20T04:51:09.337Z,3.40
2018-12-20T04:53:38.103Z,3.33
2018-12-20T04:56:06.927Z,3.33
2018-12-20T04:58:35.412Z,4.43
2018-12-20T05:01:04.100Z,1.53
2018-12-20T05:03:32.720Z,3.17
2018-12-20T05:06:01.418Z,2.10
2018-12-20T05:08:30.123Z,7.53
2018-12-20T05:10:58.916Z,3.73
2018-12-20T05:13:27.978Z,2.97
2018-12-20T05:15:57.897Z,1.70
2018-12-20T05:18:26.809Z,3.93
2018-12-20T05:20:55.545Z,3.97
2018-12-20T05:23:25.207Z,2.30
2018-12-20T05:25:54.334Z,2.87
2018-12-20T05:28:23.402Z,4.50
2018-12-20T05:30:51.991Z,2.10
2018-12-20T05:33:21.976Z,3.17
2018-12-20T05:35:50.967Z,3.17
2018-12-20T05:38:19.636Z,1.63
2018-12-20T05:40:50.008Z,3.83
2018-12-20T05:43:19.290Z,3.00
2018-12-20T05:45:47.757Z,4.23
2018-12-20T05:48:16.566Z,2.13
2018-12-20T05:50:44.946Z,2.17
2018-12-20T05:53:13.315Z,2.20
2018-12-20T05:55:41.922Z,3.77
2018-12-20T05:58:10.329Z,2.27
2018-12-20T06:00:40.254Z,1.30
2018-12-20T06:03:09.084Z,2.90
2018-12-20T06:05:37.483Z,1.40
2018-12-20T06:08:06.576Z,2.80
2018-12-20T06:10:35.241Z,1.27
2018-12-20T06:13:05.062Z,1.50
2018-12-20T06:15:34.388Z,1.70
2018-12-20T06:18:02.874Z,1.90
2018-12-20T06:20:31.631Z,2.03
2018-12-20T06:23:00.722Z,2.20
2018-12-20T06:25:29.077Z,1.30
2018-12-20T06:27:58.222Z,1.53
2018-12-20T06:30:28.096Z,4.80
2018-12-20T06:32:58.557Z,2.07
2018-12-20T06:35:27.001Z,3.07
2018-12-20T06:37:55.712Z,1.53
2018-12-20T06:40:24.665Z,2.20
2018-12-20T06:42:53.025Z,2.37
2018-12-20T06:45:22.967Z,1.10
2018-12-20T06:47:51.587Z,1.50
2018-12-20T06:50:19.930Z,2.90
2018-12-20T06:52:48.309Z,2.03
2018-12-20T06:55:16.651Z,2.10
2018-12-20T06:57:45.136Z,2.13
2018-12-20T07:00:14.284Z,4.23
2018-12-20T07:02:43.713Z,2.23
2018-12-20T07:05:12.046Z,1.90
2018-12-20T07:07:40.376Z,2.47
2018-12-20T07:10:09.333Z,1.43
2018-12-20T07:12:37.666Z,2.30
2018-12-20T07:15:07.041Z,2.20
2018-12-20T07:17:36.385Z,2.67
2018-12-20T07:20:05.057Z,3.50
2018-12-20T07:22:34.496Z,2.23
2018-12-20T07:25:03.053Z,1.47
2018-12-20T07:27:31.401Z,2.37
2018-12-20T07:29:59.769Z,1.87
2018-12-20T07:32:29.113Z,2.13
2018-12-20T07:34:58.033Z,3.37
2018-12-20T07:37:26.374Z,2.27
2018-12-20T07:39:54.839Z,3.67
2018-12-20T07:42:23.838Z,1.53
2018-12-20T07:44:52.418Z,2.20
2018-12-20T07:47:20.775Z,2.47
2018-12-20T07:49:49.122Z,2.40
2018-12-20T07:52:17.528Z,9.50
2018-12-20T07:54:45.878Z,12.13
2018-12-20T07:57:15.636Z,2.20
2018-12-20T07:59:43.977Z,1.80
2018-12-20T08:02:13.614Z,1.93
2018-12-20T08:04:41.969Z,2.87
2018-12-20T08:07:10.338Z,3.77
2018-12-20T08:09:38.706Z,2.93
2018-12-20T08:12:07.880Z,3.43
2018-12-20T08:14:36.214Z,2.53
2018-12-20T08:17:04.549Z,2.03
2018-12-20T08:19:36.390Z,1.27
2018-12-20T08:22:04.641Z,2.57
2018-12-20T08:24:33.046Z,3.47
2018-12-20T08:27:01.392Z,4.33
2018-12-20T08:29:30.067Z,4.20
2018-12-20T08:31:59.057Z,2.43
2018-12-20T08:34:27.960Z,1.07
2018-12-20T08:36:56.296Z,2.43
2018-12-20T08:39:24.612Z,2.50
2018-12-20T08:41:53.649Z,2.17
2018-12-20T08:44:22.654Z,2.50
2018-12-20T08:46:54.475Z,0.80
2018-12-20T08:49:21.782Z,1.37
2018-12-20T08:51:50.221Z,1.23
2018-12-20T08:54:19.389Z,2.83
2018-12-20T08:56:47.998Z,2.77
2018-12-20T08:59:16.380Z,2.30
2018-12-20T09:01:46.285Z,1.73
2018-12-20T09:04:14.621Z,2.00
2018-12-20T09:06:43.245Z,3.07
2018-12-20T09:09:11.597Z,2.93
2018-12-20T09:11:40.098Z,1.43
2018-12-20T09:14:08.513Z,1.47
2018-12-20T09:16:37.065Z,2.60
2018-12-20T09:19:05.674Z,1.50
2018-12-20T09:21:34.030Z,2.60
2018-12-20T09:24:02.837Z,3.30
2018-12-20T09:26:31.495Z,1.20
2018-12-20T09:28:59.830Z,1.37
2018-12-20T09:31:28.188Z,1.97
2018-12-20T09:33:58.017Z,2.37
2018-12-20T09:36:26.348Z,2.50
2018-12-20T09:38:54.689Z,2.57
2018-12-20T09:41:24.285Z,2.70
2018-12-20T09:43:54.313Z,4.77
2018-12-20T09:46:22.648Z,5.10
2018-12-20T09:48:51.090Z,3.13
2018-12-20T09:51:20.527Z,1.53
2018-12-20T09:53:48.867Z,1.87
2018-12-20T09:56:17.209Z,1.97
2018-12-20T09:58:45.932Z,3.87
2018-12-20T10:01:14.265Z,2.53
2018-12-20T10:03:42.739Z,3.03
2018-12-20T10:06:11.094Z,3.13
2018-12-20T10:08:39.545Z,2.70
2018-12-20T10:11:07.986Z,2.27
2018-12-20T10:13:36.777Z,1.40
2018-12-20T10:16:05.170Z,3.93
2018-12-20T10:18:33.565Z,1.67
2018-12-20T10:21:02.046Z,1.43
2018-12-20T10:23:30.961Z,3.10
2018-12-20T10:25:59.462Z,1.47
2018-12-20T10:28:27.983Z,3.57
2018-12-20T10:30:56.447Z,2.23
2018-12-20T10:33:25.366Z,2.93
2018-12-20T10:35:55.239Z,2.67
2018-12-20T10:38:23.759Z,3.67
2018-12-20T10:40:53.134Z,2.43
2018-12-20T10:43:22.351Z,1.43
2018-12-20T10:45:50.686Z,2.50
2018-12-20T10:48:19.017Z,2.10
2018-12-20T10:50:48.444Z,2.43
2018-12-20T10:53:17.016Z,2.73
2018-12-20T10:55:45.358Z,2.77
2018-12-20T10:58:13.713Z,1.67
2018-12-20T11:00:49.909Z,2.63
2018-12-20T11:03:25.037Z,2.57
2018-12-20T11:05:58.619Z,2.63
2018-12-20T11:08:30.268Z,1.53
2018-12-20T11:11:04.820Z,2.83
2018-12-20T11:13:33.170Z,1.43
2018-12-20T11:16:01.539Z,3.80
2018-12-20T11:18:29.927Z,4.30
2018-12-20T11:20:58.330Z,2.87
2018-12-20T11:23:27.517Z,1.40
2018-12-20T11:25:55.855Z,1.23
2018-12-20T11:28:24.716Z,4.20
2018-12-20T11:30:53.070Z,2.23
2018-12-20T11:33:22.635Z,4.10
2018-12-20T11:35:51.894Z,2.20
2018-12-20T11:38:20.236Z,4.10
2018-12-20T11:40:49.577Z,5.23
2018-12-20T11:43:19.118Z,2.60
2018-12-20T11:45:47.489Z,3.47
2018-12-20T11:48:16.615Z,2.20
2018-12-20T11:50:44.950Z,5.13
2018-12-20T11:53:13.302Z,3.37
2018-12-20T11:55:41.673Z,2.93
2018-12-20T11:58:10.009Z,2.57
2018-12-20T12:00:38.380Z,3.73
2018-12-20T12:03:06.833Z,5.13
2018-12-20T12:05:35.298Z,2.73
2018-12-20T12:08:05.711Z,1.67
2018-12-20T12:10:34.066Z,1.93
2018-12-20T12:13:02.393Z,1.13
2018-12-20T12:15:30.752Z,2.90
2018-12-20T12:17:59.111Z,5.03
2018-12-20T12:20:27.499Z,2.67
2018-12-20T12:22:57.611Z,2.00
2018-12-20T12:25:26.084Z,2.50
2018-12-20T12:27:54.794Z,1.87
2018-12-20T12:30:23.156Z,1.90
2018-12-20T12:32:53.118Z,2.47
2018-12-20T12:35:21.885Z,2.10
2018-12-20T12:37:50.238Z,2.17
2018-12-20T12:40:19.688Z,1.20
2018-12-20T12:42:48.386Z,2.20
2018-12-20T12:45:17.590Z,2.53
2018-12-20T12:47:51.957Z,1.70
2018-12-20T12:50:20.354Z,0.77
2018-12-20T12:52:48.706Z,1.33
2018-12-20T12:55:17.156Z,1.40
2018-12-20T12:57:46.714Z,2.30
2018-12-20T13:00:20.054Z,1.83
2018-12-20T13:02:48.857Z,3.70
2018-12-20T13:05:17.666Z,1.80
2018-12-20T13:07:46.108Z,5.30
2018-12-20T13:10:14.793Z,2.13
2018-12-20T13:12:43.389Z,1.43
2018-12-20T13:15:13.026Z,2.03
2018-12-20T13:17:41.547Z,2.60
2018-12-20T13:20:10.871Z,2.20
2018-12-20T13:22:39.818Z,1.57
2018-12-20T13:25:08.650Z,5.63
2018-12-20T13:27:37.014Z,2.57
2018-12-20T13:30:09.264Z,1.73
2018-12-20T13:32:39.065Z,5.07
2018-12-20T13:35:09.537Z,4.97
2018-12-20T13:37:37.901Z,4.23
2018-12-20T13:40:06.627Z,5.17
2018-12-20T13:42:35.963Z,4.30
2018-12-20T13:45:05.968Z,4.73
2018-12-20T13:47:34.324Z,3.20
2018-12-20T13:50:02.657Z,2.00
2018-12-20T13:52:33.644Z,3.70
2018-12-20T13:55:01.990Z,3.57
2018-12-20T13:57:30.412Z,5.90
2018-12-20T13:59:59.103Z,2.17
2018-12-20T14:02:27.458Z,2.40
2018-12-20T14:04:55.805Z,5.17
2018-12-20T14:07:25.317Z,1.80
2018-12-20T14:09:53.893Z,2.67
2018-12-20T14:12:22.252Z,6.53
2018-12-20T14:14:50.761Z,2.83
2018-12-20T14:17:19.401Z,4.67
2018-12-20T14:19:48.036Z,1.27
2018-12-20T14:22:17.980Z,2.20
2018-12-20T14:24:46.989Z,5.47
2018-12-20T14:27:15.344Z,2.47
2018-12-20T14:29:43.821Z,1.77
2018-12-20T14:32:14.262Z,2.33
2018-12-20T14:34:42.602Z,1.07
2018-12-20T14:37:12.239Z,3.77
2018-12-20T14:39:40.670Z,2.50
2018-12-20T14:42:10.216Z,2.03
2018-12-20T14:44:39.209Z,0.77
2018-12-20T14:47:07.567Z,4.37
2018-12-20T14:49:35.937Z,4.27
2018-12-20T14:52:05.261Z,1.77
2018-12-20T14:54:34.105Z,2.13
2018-12-20T14:57:02.457Z,2.50
2018-12-20T14:59:32.401Z,2.20
2018-12-20T15:02:00.878Z,3.80
2018-12-20T15:04:29.825Z,1.40
2018-12-20T15:06:58.242Z,1.93
2018-12-20T15:09:26.585Z,3.10
2018-12-20T15:11:54.921Z,0.90
2018-12-20T15:14:23.567Z,4.03
2018-12-20T15:16:51.925Z,4.83
2018-12-20T15:19:20.325Z,2.13
2018-12-20T15:21:48.667Z,4.07
2018-12-20T15:24:17.554Z,3.97
2018-12-20T15:26:45.894Z,1.37
2018-12-20T15:29:14.324Z,2.83
2018-12-20T15:31:42.677Z,1.00
2018-12-20T15:34:11.886Z,1.47
2018-12-20T15:36:41.067Z,1.67
2018-12-20T15:39:09.719Z,1.67
2018-12-20T15:41:39.134Z,1.70
2018-12-20T15:44:09.189Z,2.93
2018-12-20T15:46:37.877Z,2.23
2018-12-20T15:49:06.253Z,4.47
2018-12-20T15:51:36.122Z,3.53
2018-12-20T15:54:04.477Z,3.30
2018-12-20T15:56:32.957Z,5.77
2018-12-20T15:59:01.364Z,3.03
2018-12-20T16:01:29.706Z,2.93
2018-12-20T16:03:58.090Z,3.97
2018-12-20T16:06:26.437Z,2.03
2018-12-20T16:08:54.770Z,5.80
2018-12-20T16:11:23.109Z,2.10
2018-12-20T16:13:51.840Z,1.50
2018-12-20T16:16:20.373Z,2.70
2018-12-20T16:18:48.701Z,5.10
2018-12-20T16:21:17.068Z,4.13
2018-12-20T16:23:46.002Z,2.43
2018-12-20T16:26:14.356Z,4.70
2018-12-20T16:28:42.706Z,3.27
2018-12-20T16:31:11.109Z,3.53
2018-12-20T16:33:39.848Z,1.73
2018-12-20T16:36:09.310Z,3.47
2018-12-20T16:38:37.649Z,2.73
2018-12-20T16:41:06.876Z,3.33
2018-12-20T16:43:35.984Z,2.30
2018-12-20T16:46:04.333Z,2.00
2018-12-20T16:48:33.709Z,2.50
2018-12-20T16:51:04.183Z,4.90
2018-12-20T16:53:32.609Z,6.63
2018-12-20T16:56:01.256Z,7.13
2018-12-20T16:58:29.600Z,5.20
2018-12-20T17:00:57.947Z,4.67
2018-12-20T17:03:26.490Z,7.40
2018-12-20T17:05:55.133Z,5.53
2018-12-20T17:08:23.667Z,5.13
2018-12-20T17:10:52.064Z,9.37
2018-12-20T17:13:21.125Z,8.50
2018-12-20T17:15:49.593Z,11.73
2018-12-20T17:18:18.705Z,17.63
2018-12-20T17:20:47.510Z,18.30
2018-12-20T17:23:16.603Z,21.97
2018-12-20T17:25:44.942Z,17.90
2018-12-20T17:28:13.310Z,18.20
2018-12-20T17:30:41.947Z,21.87
2018-12-20T17:33:11.209Z,15.37
2018-12-20T17:35:39.553Z,16.87
2018-12-20T17:38:08.886Z,20.00
2018-12-20T17:40:38.185Z,16.23
2018-12-20T17:43:08.098Z,14.53
2018-12-20T17:45:36.975Z,17.60
2018-12-20T17:48:06.775Z,11.20
2018-12-20T17:50:35.996Z,14.87
2018-12-20T17:53:05.089Z,12.43
2018-12-20T17:55:33.518Z,13.10
2018-12-20T17:58:01.916Z,12.60
2018-12-20T18:00:30.283Z,13.23
2018-12-20T18:02:58.622Z,11.70
2018-12-20T18:05:27.062Z,9.10
2018-12-20T18:07:56.104Z,10.40
2018-12-20T18:10:24.450Z,12.10
2018-12-20T18:12:52.793Z,11.53
2018-12-20T18:15:21.169Z,11.00
2018-12-20T18:17:49.509Z,9.97
2018-12-20T18:20:17.933Z,11.13
2018-12-20T18:22:46.942Z,13.30
2018-12-20T18:25:15.276Z,9.67
2018-12-20T18:27:43.613Z,8.10
2018-12-20T18:30:12.334Z,12.00
2018-12-20T18:32:41.323Z,19.90
2018-12-20T18:35:09.657Z,8.67
2018-12-20T18:37:38.646Z,8.57
2018-12-20T18:40:08.185Z,8.50
2018-12-20T18:42:37.257Z,17.00
2018-12-20T18:45:07.769Z,8.73
2018-12-20T18:47:37.386Z,8.53
2018-12-20T18:50:08.523Z,9.00
2018-12-20T18:52:37.234Z,6.23
2018-12-20T18:55:05.671Z,10.33
2018-12-20T18:57:34.344Z,10.53
2018-12-20T19:00:02.698Z,5.63
2018-12-20T19:02:31.191Z,4.80
2018-12-20T19:05:00.470Z,7.47
2018-12-20T19:07:29.958Z,10.13
2018-12-20T19:09:58.309Z,6.43
2018-12-20T19:12:26.648Z,6.27
2018-12-20T19:14:55.013Z,5.00
2018-12-20T19:17:23.370Z,5.23
2018-12-20T19:19:56.241Z,6.40
2018-12-20T19:22:23.239Z,5.23
2018-12-20T19:24:51.640Z,7.00
2018-12-20T19:27:20.077Z,8.90
2018-12-20T19:29:48.454Z,6.07
2018-12-20T19:32:18.007Z,4.03
2018-12-20T19:34:46.354Z,3.83
2018-12-20T19:37:16.310Z,6.33
2018-12-20T19:39:45.450Z,4.70
2018-12-20T19:42:17.052Z,3.87
2018-12-20T19:44:46.286Z,5.43
2018-12-20T19:47:14.622Z,5.63
2018-12-20T19:49:43.681Z,4.37
2018-12-20T19:52:12.034Z,5.90
2018-12-20T19:54:47.764Z,2.63
2018-12-20T19:57:10.757Z,3.70
2018-12-20T19:59:39.102Z,5.37
2018-12-20T20:02:07.710Z,6.50
2018-12-20T20:04:36.443Z,5.83
2018-12-20T20:07:04.816Z,5.53
2018-12-20T20:09:33.182Z,3.23
2018-12-20T20:12:01.544Z,3.63
2018-12-20T20:14:31.490Z,4.90
2018-12-20T20:16:59.829Z,7.17
2018-12-20T20:19:28.203Z,5.80
2018-12-20T20:21:56.581Z,3.60
2018-12-20T20:24:25.829Z,4.80
2018-12-20T20:26:54.175Z,4.17
2018-12-20T20:29:22.696Z,5.77
2018-12-20T20:31:51.162Z,2.30
2018-12-20T20:34:20.218Z,6.00
2018-12-20T20:36:48.557Z,3.10
2018-12-20T20:39:17.577Z,3.20
2018-12-20T20:41:46.528Z,3.77
2018-12-20T20:44:15.338Z,2.70
2018-12-20T20:46:43.688Z,3.20
2018-12-20T20:49:12.038Z,2.73
2018-12-20T20:51:40.721Z,3.03
2018-12-20T20:54:09.066Z,5.17
2018-12-20T20:56:37.461Z,2.67
2018-12-20T20:59:05.801Z,3.10
2018-12-20T21:01:34.144Z,6.03
2018-12-20T21:04:03.777Z,5.63
2018-12-20T21:06:33.004Z,2.47
2018-12-20T21:09:01.361Z,2.37
2018-12-20T21:11:29.718Z,1.50
2018-12-20T21:13:59.324Z,3.50
2018-12-20T21:16:28.000Z,4.90
2018-12-20T21:18:56.364Z,4.77
2018-12-20T21:21:24.705Z,3.33
2018-12-20T21:23:53.289Z,3.63
2018-12-20T21:26:21.805Z,4.60
2018-12-20T21:28:50.281Z,2.73
2018-12-20T21:31:18.665Z,3.93
2018-12-20T21:33:47.541Z,5.43
2018-12-20T21:36:16.206Z,3.37
2018-12-20T21:38:45.057Z,5.63
2018-12-20T21:41:14.434Z,3.30
2018-12-20T21:43:43.694Z,2.50
2018-12-20T21:46:12.067Z,5.23
2018-12-20T21:48:40.484Z,6.10
2018-12-20T21:51:09.961Z,4.83
2018-12-20T21:53:38.315Z,10.10
2018-12-20T21:56:06.865Z,5.23
2018-12-20T21:58:35.248Z,3.40
2018-12-20T22:01:03.808Z,2.07
2018-12-20T22:03:33.254Z,5.03
2018-12-20T22:06:01.601Z,3.60
2018-12-20T22:08:29.955Z,2.07
2018-12-20T22:10:59.365Z,3.13
2018-12-20T22:13:27.724Z,3.30
2018-12-20T22:15:56.466Z,4.13
2018-12-20T22:18:24.876Z,3.47
2018-12-20T22:20:53.417Z,2.63
2018-12-20T22:23:22.268Z,3.30
2018-12-20T22:25:50.617Z,2.17
2018-12-20T22:28:19.071Z,1.83
2018-12-20T22:30:47.430Z,3.03
2018-12-20T22:33:16.301Z,2.20
2018-12-20T22:35:44.902Z,4.23
2018-12-20T22:38:14.589Z,3.33
2018-12-20T22:40:43.890Z,4.97
2018-12-20T22:43:14.449Z,6.67
2018-12-20T22:45:43.149Z,3.03
2018-12-20T22:48:11.504Z,3.23
2018-12-20T22:50:39.957Z,5.53
2018-12-20T22:53:08.296Z,2.50
2018-12-20T22:55:37.167Z,2.43
2018-12-20T22:58:06.910Z,9.77
2018-12-20T23:00:36.166Z,2.10
2018-12-20T23:03:04.571Z,3.93
2018-12-20T23:05:32.917Z,2.80
2018-12-20T23:08:02.795Z,4.13
2018-12-20T23:10:31.136Z,7.33
2018-12-20T23:12:59.489Z,2.27
2018-12-20T23:15:27.871Z,4.10
2018-12-20T23:17:56.209Z,4.83
2018-12-20T23:20:24.837Z,5.20
2018-12-20T23:22:53.551Z,4.67
2018-12-20T23:25:22.308Z,2.57
2018-12-20T23:27:50.644Z,5.27
2018-12-20T23:30:19.011Z,4.40
2018-12-20T23:32:47.846Z,4.37
2018-12-20T23:35:16.342Z,5.10
2018-12-20T23:37:45.285Z,3.50
2018-12-20T23:40:14.299Z,3.57
2018-12-20T23:42:43.547Z,1.80
2018-12-20T23:45:12.952Z,2.27
2018-12-20T23:47:41.305Z,1.90
2018-12-20T23:50:10.325Z,2.87
2018-12-20T23:52:38.750Z,3.43
2018-12-20T23:55:07.318Z,3.97
2018-12-20T23:57:35.735Z,2.53
